Flight Track Log - Related Links

Times and Time Zones

All times are in EDT time to prevent confusion due to time zone crossing. See the N40GS flight status page for this flight to view local times or setup timezone preferences in your user account.

Time Position Orientation Groundspeed Altitude Reporting Facility
EDT Latitude Longitude Course Direction KTS MPH feet Rate Location/Type
Fri 03:00:55 PM 45.6994 -111.2308 248° West 246 283 8,800  Level Salt Lake Center
Fri 03:01:00 PM 45.5238 -111.7131 199° South  Level FlightAware Approximate
Fri 03:01:57 PM 45.7092 -111.3225 279° West 233 268 11,100  Level Salt Lake Center
Fri 03:02:00 PM 45.4252 -111.7552 195° South  Level FlightAware Approximate
Fri 03:02:59 PM 45.6728 -111.4356 245° Southwest 261 300 13,000  Level Salt Lake Center
Fri 03:03:00 PM 45.3252 -111.7901 191° South  Level FlightAware Approximate
Fri 03:04:00 PM 45.2240 -111.8177 191° South  Level FlightAware Approximate
Fri 03:04:01 PM 45.6308 -111.5317 238° Southwest 279 321 15,300  Level Salt Lake Center
Fri 03:05:00 PM 45.1233 -111.8478 193° South  Level FlightAware Approximate
Fri 03:05:03 PM 45.5883 -111.6300 238° Southwest 287 330 17,100  Level Salt Lake Center
Fri 03:06:06 PM 45.5444 -111.7308 238° Southwest 297 342 18,900 1,680 Climbing Salt Lake Center
Fri 03:07:08 PM 45.5003 -111.8342 239° Southwest 304 350 20,600 1,645 Climbing Salt Lake Center
Fri 03:08:10 PM 45.4544 -111.9392 238° Southwest 311 358 22,300 1,548 Climbing Salt Lake Center
Fri 03:10:14 PM 45.3494 -112.1800 238° Southwest 330 380 25,400 1,484 Climbing Salt Lake Center
Fri 03:11:16 PM 45.3019 -112.2886 238° Southwest 336 387 26,900 1,306 Climbing Salt Lake Center
Fri 03:12:18 PM 45.2456 -112.4164 238° Southwest 343 395 28,100 1,355 Climbing Salt Lake Center
Fri 03:13:20 PM 45.1964 -112.5267 238° Southwest 345 397 29,700 1,548 Climbing Salt Lake Center
Fri 03:14:22 PM 45.1414 -112.6503 238° Southwest 336 387 31,300 1,452 Climbing Salt Lake Center
Fri 03:15:24 PM 45.0933 -112.7572 238° Southwest 336 387 32,700 1,306 Climbing Salt Lake Center
Fri 03:16:26 PM 45.0392 -112.8775 238° Southwest 328 377 34,000 629 Climbing Salt Lake Center
Fri 03:17:28 PM 44.9906 -112.9864 238° Southwest 341 392 34,000  Level Salt Lake Center
Fri 03:18:30 PM 44.9294 -113.1239 238° Southwest 369 425 34,000  Level Salt Lake Center
Fri 03:19:32 PM 44.8728 -113.2467 237° Southwest 389 448 34,000  Level Salt Lake Center
Fri 03:20:34 PM 44.8067 -113.3911 237° Southwest 394 453 34,000  Level Salt Lake Center
Fri 03:21:36 PM 44.7497 -113.5144 237° Southwest 394 453 34,000  Level Salt Lake Center
Fri 03:22:38 PM 44.6825 -113.6600 237° Southwest 396 456 34,000  Level Salt Lake Center
Fri 03:23:40 PM 44.6247 -113.7861 237° Southwest 400 460 34,000  Level Salt Lake Center
Fri 03:24:42 PM 44.5581 -113.9297 237° Southwest 395 455 34,000  Level Salt Lake Center
Fri 03:25:45 PM 44.5022 -114.0478 236° Southwest 398 458 34,000  Level Salt Lake Center
Fri 03:26:47 PM 44.4358 -114.1928 237° Southwest 397 457 34,000  Level Salt Lake Center
Fri 03:27:49 PM 44.3767 -114.3156 236° Southwest 397 457 34,000  Level Salt Lake Center
Fri 03:28:51 PM 44.3081 -114.4594 236° Southwest 398 458 34,000  Level Salt Lake Center
Fri 03:29:53 PM 44.2494 -114.5831 237° Southwest 399 459 34,000  Level Salt Lake Center
Fri 03:30:55 PM 44.1817 -114.7250 236° Southwest 395 455 34,000  Level Salt Lake Center
Fri 03:31:57 PM 44.1172 -114.8417 232° Southwest 394 453 34,000  Level Salt Lake Center
Fri 03:32:59 PM 44.0364 -114.9711 229° Southwest 395 455 34,000  Level Salt Lake Center
Fri 03:34:01 PM 43.9650 -115.0853 229° Southwest 407 468 34,000  Level Salt Lake Center
Fri 03:35:03 PM 43.8978 -115.1950 230° Southwest 392 451 34,000  Level Salt Lake Center
Fri 03:36:05 PM 43.8167 -115.3256 229° Southwest 398 458 34,000  Level Salt Lake Center
Fri 03:37:07 PM 43.7478 -115.4358 229° Southwest 395 455 34,000  Level Salt Lake Center
Fri 03:38:09 PM 43.6669 -115.5658 229° Southwest 397 457 34,000  Level Salt Lake Center
Fri 03:39:11 PM 43.5981 -115.6767 229° Southwest 397 457 34,000  Level Salt Lake Center
Fri 03:40:13 PM 43.5172 -115.8042 229° Southwest 394 453 34,000  Level Salt Lake Center
Fri 03:41:15 PM 43.4486 -115.9133 229° Southwest 394 453 34,000  Level Salt Lake Center
Fri 03:42:17 PM 43.3678 -116.0411 229° Southwest 394 453 34,000  Level Salt Lake Center
Fri 03:43:19 PM 43.2978 -116.1508 229° Southwest 397 457 34,000  Level Salt Lake Center
Fri 03:44:21 PM 43.2278 -116.2581 228° Southwest 394 453 34,000  Level Salt Lake Center
Fri 03:45:23 PM 43.1464 -116.3844 229° Southwest 396 456 34,000  Level Salt Lake Center
Fri 03:46:25 PM 43.0769 -116.4922 229° Southwest 394 453 34,000  Level Salt Lake Center
Fri 03:47:27 PM 42.9956 -116.6175 228° Southwest 394 453 34,000  Level Salt Lake Center
Fri 03:48:29 PM 42.9258 -116.7250 228° Southwest 395 455 34,000  Level Salt Lake Center
Fri 03:49:32 PM 42.8442 -116.8494 228° Southwest 396 456 34,000  Level Salt Lake Center
Fri 03:50:34 PM 42.7739 -116.9558 228° Southwest 394 453 34,000  Level Salt Lake Center
Fri 03:51:36 PM 42.6925 -117.0800 228° Southwest 396 456 34,000  Level Salt Lake Center
Fri 03:52:38 PM 42.6228 -117.1831 227° Southwest 387 445 34,000  Level Salt Lake Center
Fri 03:53:40 PM 42.5411 -117.3086 229° Southwest 398 458 34,000  Level Salt Lake Center
Fri 03:54:42 PM 42.4706 -117.4117 227° Southwest 390 449 34,000  Level Salt Lake Center
Fri 03:55:44 PM 42.4011 -117.5172 228° Southwest 392 451 34,000  Level Salt Lake Center
Fri 03:56:46 PM 42.3186 -117.6378 227° Southwest 391 450 34,000  Level Salt Lake Center
Fri 03:57:48 PM 42.2481 -117.7406 227° Southwest 391 450 34,000  Level Salt Lake Center
Fri 03:59:52 PM 42.0989 -117.9667 228° Southwest 391 450 34,000  Level Salt Lake Center
Fri 04:00:54 PM 42.0153 -118.0869 227° Southwest 393 452 34,000  Level Salt Lake Center
Fri 04:01:56 PM 41.9458 -118.1886 227° Southwest 388 447 34,000  Level Salt Lake Center
Fri 04:02:58 PM 41.8636 -118.3089 227° Southwest 391 450 34,000  Level Salt Lake Center
Fri 04:04:00 PM 41.7917 -118.4133 227° Southwest 398 458 34,000  Level Salt Lake Center
Fri 04:05:02 PM 41.7100 -118.5319 227° Southwest 391 450 34,000  Level Salt Lake Center
Fri 04:06:04 PM 41.6389 -118.6331 227° Southwest 390 449 34,000  Level Salt Lake Center
Fri 04:07:03 PM 41.5686 -118.7319 226° Southwest 390 449 34,000  Level Oakland Center
Fri 04:08:05 PM 41.4861 -118.8508 227° Southwest 390 449 34,000  Level Oakland Center
Fri 04:09:07 PM 41.4150 -118.9517 227° Southwest 390 449 34,000  Level Oakland Center
Fri 04:10:08 PM 41.3319 -119.0692 227° Southwest 392 451 34,000  Level Oakland Center
Fri 04:11:10 PM 41.2594 -119.1708 227° Southwest 393 452 34,000  Level Oakland Center
Fri 04:12:12 PM 41.1761 -119.2889 227° Southwest 394 453 34,000  Level Oakland Center
Fri 04:13:13 PM 41.1050 -119.3894 227° Southwest 391 450 34,000  Level Oakland Center
Fri 04:14:15 PM 41.0328 -119.4889 226° Southwest 392 451 34,000  Level Oakland Center
Fri 04:15:17 PM 40.9478 -119.6067 226° Southwest 393 452 34,000  Level Oakland Center
Fri 04:16:00 PM 40.8936 -119.6844 227° Southwest 390 449 34,000  Level Seattle Center
Fri 04:17:01 PM 40.8175 -119.7886 226° Southwest 392 451 34,000  Level Seattle Center
Fri 04:18:03 PM 40.7428 -119.8919 226° Southwest 390 449 34,000  Level Seattle Center
Fri 04:19:04 PM 40.6675 -119.9958 226° Southwest 392 451 34,000  Level Seattle Center
Fri 04:20:06 PM 40.5922 -120.1006 227° Southwest 392 451 34,000  Level Seattle Center
Fri 04:21:07 PM 40.5147 -120.2039 225° Southwest 394 453 34,000  Level Seattle Center
Fri 04:22:08 PM 40.4400 -120.3053 226° Southwest 389 448 34,000  Level Seattle Center
Fri 04:23:10 PM 40.3503 -120.4267 226° Southwest 391 450 34,000  Level Seattle Center
Fri 04:24:11 PM 40.2731 -120.5292 225° Southwest 394 453 34,000  Level Seattle Center
Fri 04:25:13 PM 40.1969 -120.6319 226° Southwest 393 452 34,000  Level Seattle Center
Fri 04:26:14 PM 40.1192 -120.7356 226° Southwest 396 456 34,000  Level Seattle Center
Fri 04:27:35 PM 40.0106 -120.8789 225° Southwest 390 449 34,000  Level Oakland Center
Fri 04:28:37 PM 39.9322 -120.9792 224° Southwest 392 451 34,000  Level Oakland Center
Fri 04:29:38 PM 39.8550 -121.0814 225° Southwest 395 455 34,000 -341 Level Oakland Center
Fri 04:30:40 PM 39.7778 -121.1847 226° Southwest 398 458 33,300 -1,016 Descending Oakland Center
Fri 04:31:42 PM 39.6992 -121.2903 226° Southwest 404 465 31,900 -1,561 Descending Oakland Center
Fri 04:32:43 PM 39.6194 -121.3933 225° Southwest 403 464 30,100 -1,756 Descending Oakland Center
Fri 04:33:45 PM 39.5383 -121.4983 225° Southwest 409 471 28,300 -2,000 Descending Oakland Center
Fri 04:34:46 PM 39.4428 -121.6222 225° Southwest 411 473 26,000 -2,049 Descending Oakland Center
Fri 04:35:48 PM 39.3622 -121.7264 225° Southwest 411 473 24,100 -1,854 Descending Oakland Center
Fri 04:36:49 PM 39.2825 -121.8311 225° Southwest 411 473 22,200 -1,854 Descending Oakland Center
Fri 04:37:51 PM 39.2044 -121.9319 225° Southwest 401 461 20,300 -1,694 Descending Oakland Center
Fri 04:38:53 PM 39.1303 -122.0292 225° Southwest 384 442 18,700 -1,756 Descending Oakland Center
Fri 04:39:54 PM 39.0597 -122.1178 224° Southwest 360 414 16,700 -1,902 Descending Oakland Center
Fri 04:40:56 PM 38.9897 -122.2069 225° Southwest 354 407 14,800 -2,098 Descending Oakland Center
Fri 04:41:57 PM 38.9139 -122.3053 225° Southwest 319 367 12,400 -2,146 Descending Oakland Center
Fri 04:42:59 PM 38.8553 -122.3775 224° Southwest 293 337 10,400 -2,098 Descending Oakland Center
Fri 04:44:00 PM 38.7975 -122.4519 225° Southwest 292 336 8,100 -1,659 Descending Oakland Center
Fri 04:45:02 PM 38.7422 -122.5225 225° Southwest 289 333 7,000 -537 Descending Oakland Center
Fri 04:46:03 PM 38.6881 -122.5894 224° Southwest 276 318 7,000 -390 Level Oakland Center
Fri 04:47:05 PM 38.6514 -122.6681 239° Southwest 265 305 6,200 -1,268 Descending Oakland Center
Fri 04:48:06 PM 38.6222 -122.7656 249° West 251 289 4,400 -1,561 Descending Oakland Center
Fri 04:49:08 PM 38.5900 -122.8178 232° Southwest 211 243 3,000 -1,548 Descending Oakland Center
Fri 04:50:10 PM 38.5522 -122.8339 198° South 173 199 1,200 -1,317 Descending Oakland Center
Fri 04:51:11 PM 38.5206 -122.8164 157° South 142 163 300 -885 Descending Oakland Center

Login

Don't have an account? Register now (free) for customized features, flight alerts, and more!